Terminal Aerodrome Forecast
Issued by NWS Twin Cities, MN

Home | Current Version | Previous Version | Text Only | Print | Product List | Glossary Off
Versions: 1 2 3 4 5 6 7 8 9 10 11 12 13 14 15 16 17 18 19 20 21 22 23 24 25 26

989
FTUS43 KMPX 121126
TAFMSP
TAF
KMSP 121126Z 1212/1318 31011KT P6SM SCT035
     FM121500 32015G24KT P6SM FEW035
     FM130000 31009KT P6SM SKC
     FM131300 VRB02KT P6SM FEW250=

USA.gov is the U.S. government's official web portal to all federal, state and local government web resources and services.